Asti, California
Current Conditions -  °F | °C
As of 1:53 AM on Saturday 29 Nov 2014 (Local Time) from KSTS Reporting Station
Moderate Rain Moderate Rain  
Wind Chill: 56°   Ceiling: 1300
Heat Index: 56°   Visibility: 5mi
Dew Point: 55°   Wind: 0mph
Humidity: 97%   Direction: NA
Pressure: 29.81"   Gusts: NA
Location:  38.7954°N, 123.01°W
Report Text: KSTS 290953Z AUTO 00000KT 5SM RA BR SCT008 BKN013 OVC018 13/13 A2981 RMK AO2 SLP087 P0020 T01330128
Loading
Personal Weather Stations






























Interactive Weather Map New forecast layout! Learn more

10-Day Weather Forecast

Advertisements
Track Severe Weather on mobile